createdAt,value
2023-04-11T00:01:14.863Z,39.94
2023-04-11T00:03:44.270Z,39.90
2023-04-11T00:06:14.364Z,39.77
2023-04-11T00:08:44.940Z,39.68
2023-04-11T00:11:15.598Z,39.61
2023-04-11T00:13:46.335Z,39.53
2023-04-11T00:16:17.591Z,39.37
2023-04-11T00:18:47.114Z,39.25
2023-04-11T00:21:16.303Z,39.03
2023-04-11T00:23:44.740Z,38.97
2023-04-11T00:26:14.612Z,39.99
2023-04-11T00:28:46.512Z,39.20
2023-04-11T00:31:17.175Z,38.71
2023-04-11T00:33:46.786Z,38.47
2023-04-11T00:36:16.141Z,38.53
2023-04-11T00:38:45.335Z,38.46
2023-04-11T00:41:14.544Z,38.40
2023-04-11T00:43:43.878Z,38.47
2023-04-11T00:46:12.696Z,38.32
2023-04-11T00:48:42.824Z,38.25
2023-04-11T00:51:12.369Z,38.10
2023-04-11T00:53:44.189Z,38.07
2023-04-11T00:56:14.466Z,37.94
2023-04-11T00:58:45.518Z,37.85
2023-04-11T01:01:17.512Z,37.79
2023-04-11T01:03:53.340Z,37.80
2023-04-11T01:06:41.762Z,37.87
2023-04-11T01:09:19.462Z,37.74
2023-04-11T01:12:00.267Z,37.65
2023-04-11T01:14:31.655Z,37.53
2023-04-11T01:17:03.479Z,37.51
2023-04-11T01:19:33.091Z,37.39
2023-04-11T01:22:03.980Z,37.34
2023-04-11T01:24:34.627Z,37.23
2023-04-11T01:27:04.542Z,37.12
2023-04-11T01:29:34.560Z,37.13
2023-04-11T01:32:03.920Z,37.25
2023-04-11T01:34:35.354Z,36.77
2023-04-11T01:37:04.375Z,36.71
2023-04-11T01:39:32.598Z,38.50
2023-04-11T01:42:04.063Z,36.98
2023-04-11T01:44:34.494Z,36.76
2023-04-11T01:47:04.958Z,36.65
2023-04-11T01:49:34.673Z,36.40
2023-04-11T01:52:03.575Z,36.49
2023-04-11T01:54:32.433Z,36.22
2023-04-11T01:57:02.391Z,36.14
2023-04-11T01:59:32.130Z,36.06
2023-04-11T02:02:02.852Z,35.99
2023-04-11T02:04:34.494Z,35.92
2023-04-11T02:07:03.585Z,35.80
2023-04-11T02:09:32.446Z,36.17
2023-04-11T02:12:02.564Z,37.53
2023-04-11T02:14:46.556Z,36.42
2023-04-11T02:17:15.548Z,36.07
2023-04-11T02:19:48.592Z,35.82
2023-04-11T02:22:18.331Z,36.71
2023-04-11T02:24:48.414Z,37.03
2023-04-11T02:27:17.103Z,35.99
2023-04-11T02:29:48.798Z,35.62
2023-04-11T02:32:18.859Z,35.45
2023-04-11T02:34:48.497Z,35.53
2023-04-11T02:37:18.285Z,35.51
2023-04-11T02:39:46.892Z,35.38
2023-04-11T02:42:15.986Z,35.14
2023-04-11T02:44:44.589Z,35.17
2023-04-11T02:47:13.596Z,35.07
2023-04-11T02:49:43.473Z,35.05
2023-04-11T02:52:16.367Z,35.08
2023-04-11T02:54:44.630Z,35.00
2023-04-11T02:57:14.285Z,35.12
2023-04-11T02:59:42.976Z,34.93
2023-04-11T03:02:12.815Z,34.81
2023-04-11T03:04:42.369Z,34.89
2023-04-11T03:07:20.161Z,34.67
2023-04-11T03:09:49.049Z,34.60
2023-04-11T03:12:20.594Z,34.60
2023-04-11T03:14:59.352Z,34.76
2023-04-11T03:17:29.592Z,35.83
2023-04-11T03:20:00.128Z,35.51
2023-04-11T03:22:29.642Z,34.90
2023-04-11T03:25:02.407Z,34.73
2023-04-11T03:27:33.047Z,34.61
2023-04-11T03:30:05.282Z,34.51
2023-04-11T03:32:43.091Z,34.27
2023-04-11T03:35:12.908Z,34.21
2023-04-11T03:37:48.417Z,34.22
2023-04-11T03:40:19.700Z,34.16
2023-04-11T03:42:54.391Z,34.11
2023-04-11T03:45:30.905Z,34.36
2023-04-11T03:48:02.640Z,34.47
2023-04-11T03:50:46.823Z,34.28
2023-04-11T03:53:19.847Z,34.14
2023-04-11T03:55:50.634Z,34.09
2023-04-11T03:58:22.551Z,34.03
2023-04-11T04:00:52.474Z,33.97
2023-04-11T04:03:22.814Z,33.90
2023-04-11T04:05:52.805Z,33.89
2023-04-11T04:08:25.058Z,33.85
2023-04-11T04:10:54.832Z,33.84
2023-04-11T04:13:24.649Z,33.77
2023-04-11T04:16:12.198Z,33.81
2023-04-11T04:18:44.185Z,33.73
2023-04-11T04:21:12.998Z,33.71
2023-04-11T04:23:48.004Z,33.61
2023-04-11T04:26:32.645Z,33.70
2023-04-11T04:29:18.922Z,33.66
2023-04-11T04:32:02.395Z,33.47
2023-04-11T04:34:50.474Z,33.50
2023-04-11T04:37:30.541Z,33.38
2023-04-11T04:40:21.534Z,33.45
2023-04-11T04:43:03.005Z,33.25
2023-04-11T04:45:40.303Z,33.16
2023-04-11T04:48:08.829Z,33.12
2023-04-11T04:50:39.118Z,32.88
2023-04-11T04:53:08.690Z,32.78
2023-04-11T04:55:42.872Z,32.74
2023-04-11T04:58:12.456Z,32.75
2023-04-11T05:00:42.148Z,32.79
2023-04-11T05:03:21.390Z,32.78
2023-04-11T05:05:54.702Z,32.75
2023-04-11T05:08:23.928Z,32.52
2023-04-11T05:10:54.754Z,32.45
2023-04-11T05:13:23.411Z,32.39
2023-04-11T05:15:52.637Z,32.37
2023-04-11T05:18:22.540Z,32.39
2023-04-11T05:20:52.742Z,32.36
2023-04-11T05:23:27.224Z,33.05
2023-04-11T05:26:00.530Z,32.73
2023-04-11T05:28:30.924Z,32.39
2023-04-11T05:31:03.619Z,32.33
2023-04-11T05:33:33.664Z,32.29
2023-04-11T05:36:03.881Z,32.38
2023-04-11T05:38:35.995Z,32.35
2023-04-11T05:41:07.935Z,32.32
2023-04-11T05:43:37.373Z,32.37
2023-04-11T05:46:08.681Z,32.39
2023-04-11T05:48:39.736Z,32.41
2023-04-11T05:51:08.935Z,32.33
2023-04-11T05:53:38.743Z,32.30
2023-04-11T05:56:09.063Z,32.26
2023-04-11T05:58:38.969Z,32.26
2023-04-11T06:01:12.852Z,32.20
2023-04-11T06:03:42.993Z,32.35
2023-04-11T06:06:12.759Z,32.11
2023-04-11T06:08:42.939Z,31.85
2023-04-11T06:11:13.235Z,31.74
2023-04-11T06:13:42.967Z,31.69
2023-04-11T06:16:11.992Z,31.69
2023-04-11T06:18:41.122Z,31.84
2023-04-11T06:21:12.316Z,31.91
2023-04-11T06:23:40.598Z,32.08
2023-04-11T06:26:11.005Z,32.12
2023-04-11T06:28:42.962Z,31.97
2023-04-11T06:31:12.432Z,31.91
2023-04-11T06:33:41.651Z,31.68
2023-04-11T06:36:11.332Z,31.63
2023-04-11T06:38:41.391Z,31.74
2023-04-11T06:41:11.894Z,31.73
2023-04-11T06:43:43.262Z,31.70
2023-04-11T06:46:12.342Z,31.53
2023-04-11T06:48:40.793Z,31.60
2023-04-11T06:51:11.647Z,31.63
2023-04-11T06:53:40.752Z,31.41
2023-04-11T06:56:09.829Z,31.37
2023-04-11T06:58:39.556Z,31.32
2023-04-11T07:01:09.165Z,31.31
2023-04-11T07:03:39.486Z,31.24
2023-04-11T07:06:09.427Z,31.17
2023-04-11T07:08:40.301Z,31.09
2023-04-11T07:11:09.200Z,31.26
2023-04-11T07:13:40.113Z,31.30
2023-04-11T07:16:10.703Z,31.34
2023-04-11T07:18:39.545Z,31.33
2023-04-11T07:21:14.583Z,31.26
2023-04-11T07:23:44.375Z,32.48
2023-04-11T07:26:17.461Z,31.63
2023-04-11T07:28:48.111Z,31.39
2023-04-11T07:31:20.489Z,31.44
2023-04-11T07:33:49.268Z,31.18
2023-04-11T07:36:18.909Z,31.34
2023-04-11T07:38:48.299Z,31.46
2023-04-11T07:41:17.588Z,31.62
2023-04-11T07:43:47.671Z,31.67
2023-04-11T07:46:17.734Z,31.66
2023-04-11T07:48:47.522Z,31.62
2023-04-11T07:51:18.474Z,31.58
2023-04-11T07:53:47.344Z,31.54
2023-04-11T07:56:16.641Z,31.53
2023-04-11T07:58:45.362Z,31.47
2023-04-11T08:01:26.009Z,31.54
2023-04-11T08:03:58.299Z,31.39
2023-04-11T08:06:30.939Z,31.31
2023-04-11T08:09:01.434Z,31.29
2023-04-11T08:11:32.556Z,31.24
2023-04-11T08:14:03.050Z,31.35
2023-04-11T08:16:36.389Z,31.42
2023-04-11T08:19:06.737Z,31.47
2023-04-11T08:21:35.801Z,31.41
2023-04-11T08:24:05.092Z,31.30
2023-04-11T08:26:34.681Z,31.21
2023-04-11T08:29:04.189Z,31.26
2023-04-11T08:31:33.226Z,31.28
2023-04-11T08:34:04.464Z,31.17
2023-04-11T08:36:34.846Z,31.13
2023-04-11T08:39:04.132Z,30.98
2023-04-11T08:41:34.745Z,30.99
2023-04-11T08:44:04.041Z,30.93
2023-04-11T08:46:42.482Z,30.74
2023-04-11T08:49:12.715Z,30.85
2023-04-11T08:51:44.319Z,30.75
2023-04-11T08:54:13.313Z,30.78
2023-04-11T08:56:44.532Z,30.63
2023-04-11T08:59:12.814Z,30.55
2023-04-11T09:01:43.087Z,30.47
2023-04-11T09:04:12.526Z,30.44
2023-04-11T09:06:43.889Z,30.43
2023-04-11T09:09:32.016Z,30.61
2023-04-11T09:12:04.005Z,30.56
2023-04-11T09:14:33.098Z,30.57
2023-04-11T09:17:06.802Z,30.70
2023-04-11T09:19:36.771Z,30.42
2023-04-11T09:22:06.948Z,30.31
2023-04-11T09:24:37.197Z,30.30
2023-04-11T09:27:20.391Z,30.39
2023-04-11T09:29:49.962Z,30.35
2023-04-11T09:32:34.847Z,30.48
2023-04-11T09:35:25.675Z,30.61
2023-04-11T09:38:04.013Z,30.51
2023-04-11T09:40:44.087Z,30.50
2023-04-11T09:43:12.873Z,30.48
2023-04-11T09:45:53.727Z,30.39
2023-04-11T09:48:32.104Z,30.40
2023-04-11T09:51:10.688Z,30.26
2023-04-11T09:53:41.442Z,30.34
2023-04-11T09:56:11.998Z,30.34
2023-04-11T09:58:41.776Z,30.25
2023-04-11T10:01:11.918Z,30.11
2023-04-11T10:03:42.923Z,30.07
2023-04-11T10:06:16.752Z,30.10
2023-04-11T10:08:45.508Z,30.05
2023-04-11T10:11:20.856Z,30.21
2023-04-11T10:13:52.238Z,30.20
2023-04-11T10:16:23.865Z,30.22
2023-04-11T10:18:57.903Z,30.65
2023-04-11T10:21:37.067Z,30.34
2023-04-11T10:24:18.125Z,30.72
2023-04-11T10:26:49.275Z,30.78
2023-04-11T10:29:51.183Z,31.05
2023-04-11T10:32:25.775Z,30.89
2023-04-11T10:34:55.034Z,31.82
2023-04-11T10:37:34.908Z,30.58
2023-04-11T10:40:12.548Z,30.22
2023-04-11T10:42:47.786Z,30.08
2023-04-11T10:45:25.094Z,30.36
2023-04-11T10:47:58.001Z,30.02
2023-04-11T10:50:32.705Z,30.09
2023-04-11T10:53:05.396Z,30.14
2023-04-11T10:55:49.693Z,30.33
2023-04-11T10:58:22.824Z,30.30
2023-04-11T11:00:54.922Z,30.35
2023-04-11T11:03:35.265Z,30.35
2023-04-11T11:06:06.874Z,30.46
2023-04-11T11:08:43.105Z,30.25
2023-04-11T11:11:13.257Z,30.18
2023-04-11T11:13:44.520Z,30.67
2023-04-11T11:16:32.688Z,30.33
2023-04-11T11:19:07.336Z,30.15
2023-04-11T11:21:37.020Z,30.39
2023-04-11T11:24:07.363Z,30.01
2023-04-11T11:26:41.567Z,29.94
2023-04-11T11:29:12.880Z,29.96
2023-04-11T11:31:48.764Z,30.01
2023-04-11T11:34:30.878Z,30.24
2023-04-11T11:37:05.083Z,30.24
2023-04-11T11:39:36.422Z,30.35
2023-04-11T11:42:05.788Z,30.40
2023-04-11T11:44:36.472Z,30.57
2023-04-11T11:47:11.175Z,31.05
2023-04-11T11:49:53.941Z,30.97
2023-04-11T11:52:42.615Z,31.10
2023-04-11T11:55:35.360Z,31.29
2023-04-11T11:58:04.859Z,31.28
2023-04-11T12:00:41.019Z,31.29
2023-04-11T12:03:13.222Z,31.90
2023-04-11T12:05:44.154Z,32.74
2023-04-11T12:08:13.197Z,31.97
2023-04-11T12:10:47.507Z,31.96
2023-04-11T12:13:24.550Z,32.18
2023-04-11T12:15:57.278Z,32.28
2023-04-11T12:18:30.556Z,32.61
2023-04-11T12:21:01.140Z,32.92
2023-04-11T12:23:32.690Z,33.08
2023-04-11T12:26:03.173Z,33.57
2023-04-11T12:28:32.326Z,33.55
2023-04-11T12:31:03.131Z,33.98
2023-04-11T12:33:32.955Z,34.27
2023-04-11T12:36:03.012Z,34.52
2023-04-11T12:38:32.512Z,34.50
2023-04-11T12:43:51.213Z,35.01
2023-04-11T12:44:22.910Z,34.78
2023-04-11T12:46:20.620Z,35.20
2023-04-11T12:48:49.090Z,35.26
2023-04-11T12:51:18.962Z,35.40
2023-04-11T12:53:49.109Z,35.54
2023-04-11T12:56:32.640Z,35.75
2023-04-11T12:59:02.762Z,36.02
2023-04-11T13:01:32.601Z,36.13
2023-04-11T13:04:02.943Z,36.24
2023-04-11T13:06:33.235Z,36.45
2023-04-11T13:09:07.575Z,36.68
2023-04-11T13:11:36.933Z,36.88
2023-04-11T13:14:08.729Z,37.01
2023-04-11T13:16:37.460Z,37.04
2023-04-11T13:19:07.269Z,37.23
2023-04-11T13:21:38.249Z,37.37
2023-04-11T13:24:08.753Z,37.55
2023-04-11T13:26:37.041Z,37.77
2023-04-11T13:29:08.104Z,37.86
2023-04-11T13:31:36.705Z,38.04
2023-04-11T13:34:05.012Z,38.09
2023-04-11T13:36:34.483Z,38.26
2023-04-11T13:39:04.422Z,38.40
2023-04-11T13:41:33.295Z,38.61
2023-04-11T13:44:02.988Z,38.85
2023-04-11T13:46:32.344Z,38.98
2023-04-11T13:49:02.983Z,39.16
2023-04-11T13:51:33.510Z,39.33
2023-04-11T13:54:02.746Z,39.50
2023-04-11T13:56:32.556Z,39.68
2023-04-11T13:59:02.757Z,39.91
2023-04-11T14:01:31.460Z,40.08
2023-04-11T14:04:01.688Z,40.13
2023-04-11T14:06:31.617Z,40.36
2023-04-11T14:09:02.882Z,40.49
2023-04-11T14:11:31.848Z,40.67
2023-04-11T14:14:02.473Z,40.74
2023-04-11T14:16:31.828Z,40.80
2023-04-11T14:19:07.215Z,41.08
2023-04-11T14:22:05.614Z,41.34
2023-04-11T14:24:41.144Z,41.09
2023-04-11T14:27:18.212Z,41.10
2023-04-11T14:29:48.429Z,41.14
2023-04-11T14:32:19.233Z,41.19
2023-04-11T14:34:48.230Z,41.27
2023-04-11T14:37:16.713Z,41.36
2023-04-11T14:39:47.016Z,42.30
2023-04-11T14:42:16.203Z,42.54
2023-04-11T14:44:45.106Z,42.20
2023-04-11T14:47:14.254Z,42.02
2023-04-11T14:49:43.441Z,42.03
2023-04-11T14:52:13.062Z,42.06
2023-04-11T14:54:42.886Z,42.13
2023-04-11T14:57:11.961Z,42.28
2023-04-11T14:59:42.047Z,42.39
2023-04-11T15:02:12.151Z,42.49
2023-04-11T15:04:41.698Z,42.79
2023-04-11T15:07:10.914Z,43.02
2023-04-11T15:09:39.447Z,43.09
2023-04-11T15:12:08.841Z,43.18
2023-04-11T15:14:38.390Z,43.24
2023-04-11T15:17:08.389Z,43.34
2023-04-11T15:19:36.993Z,43.37
2023-04-11T15:22:06.603Z,43.50
2023-04-11T15:24:35.247Z,43.49
2023-04-11T15:27:04.588Z,43.42
2023-04-11T15:29:34.686Z,43.54
2023-04-11T15:32:04.626Z,43.56
2023-04-11T15:34:32.919Z,43.67
2023-04-11T15:37:02.501Z,43.78
2023-04-11T15:39:32.554Z,43.87
2023-04-11T15:42:03.192Z,43.86
2023-04-11T15:44:32.811Z,43.84
2023-04-11T15:47:02.895Z,44.08
2023-04-11T15:49:32.296Z,44.17
2023-04-11T15:52:02.807Z,44.18
2023-04-11T15:54:32.867Z,44.38
2023-04-11T15:57:03.343Z,45.83
2023-04-11T15:59:32.568Z,45.13
2023-04-11T16:02:02.863Z,44.79
2023-04-11T16:04:32.594Z,44.63
2023-04-11T16:07:03.093Z,44.59
2023-04-11T16:09:32.405Z,44.57
2023-04-11T16:12:02.893Z,44.52
2023-04-11T16:14:32.586Z,44.46
2023-04-11T16:17:05.835Z,44.62
2023-04-11T16:19:35.114Z,44.86
2023-04-11T16:22:04.167Z,44.97
2023-04-11T16:24:33.220Z,44.92
2023-04-11T16:27:03.630Z,44.85
2023-04-11T16:29:32.724Z,44.81
2023-04-11T16:32:02.957Z,44.77
2023-04-11T16:34:33.045Z,44.93
2023-04-11T16:37:03.069Z,45.00
2023-04-11T16:39:33.230Z,45.04
2023-04-11T16:42:03.512Z,45.10
2023-04-11T16:44:32.974Z,45.30
2023-04-11T16:47:02.698Z,45.27
2023-04-11T16:49:33.047Z,45.25
2023-04-11T16:52:06.757Z,45.81
2023-04-11T16:54:36.031Z,45.72
2023-04-11T16:57:05.236Z,45.58
2023-04-11T16:59:34.554Z,45.60
2023-04-11T17:02:03.689Z,45.54
2023-04-11T17:04:33.119Z,45.58
2023-04-11T17:07:03.018Z,45.66
2023-04-11T17:09:32.614Z,45.77
2023-04-11T17:12:04.408Z,45.95
2023-04-11T17:14:36.959Z,45.96
2023-04-11T17:17:07.386Z,46.22
2023-04-11T17:19:36.521Z,45.95
2023-04-11T17:22:13.326Z,46.26
2023-04-11T17:24:43.898Z,46.32
2023-04-11T17:27:12.735Z,46.22
2023-04-11T17:29:41.338Z,46.27
2023-04-11T17:32:11.383Z,46.36
2023-04-11T17:34:40.866Z,46.26
2023-04-11T17:37:10.699Z,46.32
2023-04-11T17:39:39.521Z,46.61
2023-04-11T17:42:08.884Z,46.86
2023-04-11T17:44:37.477Z,46.86
2023-04-11T17:47:08.570Z,46.85
2023-04-11T17:49:37.121Z,46.88
2023-04-11T17:52:07.675Z,46.93
2023-04-11T17:54:37.253Z,46.96
2023-04-11T17:57:08.366Z,47.33
2023-04-11T17:59:37.048Z,46.91
2023-04-11T18:02:07.603Z,46.82
2023-04-11T18:04:36.934Z,46.68
2023-04-11T18:07:08.075Z,46.41
2023-04-11T18:09:37.458Z,46.46
2023-04-11T18:12:07.092Z,46.47
2023-04-11T18:14:36.235Z,46.55
2023-04-11T18:17:05.343Z,46.63
2023-04-11T18:19:34.632Z,46.65
2023-04-11T18:22:03.731Z,46.80
2023-04-11T18:24:32.826Z,46.81
2023-04-11T18:27:03.444Z,46.90
2023-04-11T18:29:32.637Z,46.91
2023-04-11T18:32:04.558Z,47.07
2023-04-11T18:34:32.796Z,47.05
2023-04-11T18:37:03.450Z,47.02
2023-04-11T18:39:45.362Z,47.13
2023-04-11T18:45:07.033Z,47.38
2023-04-11T18:47:39.767Z,47.33
2023-04-11T18:50:16.623Z,47.38
2023-04-11T18:52:56.177Z,47.17
2023-04-11T18:55:32.548Z,47.25
2023-04-11T18:58:05.683Z,48.19
2023-04-11T19:00:36.415Z,47.35
2023-04-11T19:03:06.059Z,47.38
2023-04-11T19:05:36.092Z,47.16
2023-04-11T19:08:05.341Z,47.03
2023-04-11T19:10:34.699Z,46.99
2023-04-11T19:13:04.247Z,46.97
2023-04-11T19:15:33.220Z,48.31
2023-04-11T19:18:03.179Z,48.26
2023-04-11T19:20:33.224Z,48.17
2023-04-11T19:23:03.402Z,48.22
2023-04-11T19:25:32.744Z,48.22
2023-04-11T19:28:03.002Z,48.30
2023-04-11T19:30:32.437Z,49.06
2023-04-11T19:33:03.493Z,48.99
2023-04-11T19:35:32.900Z,48.29
2023-04-11T19:38:06.152Z,48.29
2023-04-11T19:40:38.485Z,48.51
2023-04-11T19:43:08.438Z,48.32
2023-04-11T19:45:39.710Z,48.29
2023-04-11T19:48:13.074Z,48.36
2023-04-11T19:50:43.138Z,48.27
2023-04-11T19:53:12.458Z,48.76
2023-04-11T19:55:41.824Z,48.44
2023-04-11T19:58:12.193Z,48.38
2023-04-11T20:00:43.069Z,48.32
2023-04-11T20:03:15.368Z,48.49
2023-04-11T20:05:45.083Z,48.63
2023-04-11T20:08:15.062Z,49.17
2023-04-11T20:10:44.864Z,49.23
2023-04-11T20:13:20.037Z,48.64
2023-04-11T20:15:49.063Z,48.71
2023-04-11T20:18:18.913Z,48.54
2023-04-11T20:20:48.106Z,48.36
2023-04-11T20:23:16.810Z,48.49
2023-04-11T20:25:45.375Z,48.52
2023-04-11T20:28:14.517Z,48.55
2023-04-11T20:30:44.423Z,48.51
2023-04-11T20:33:13.390Z,48.53
2023-04-11T20:35:43.198Z,48.58
2023-04-11T20:38:12.379Z,48.70
2023-04-11T20:40:45.824Z,48.96
2023-04-11T20:43:26.562Z,48.98
2023-04-11T20:46:00.542Z,48.74
2023-04-11T20:48:31.400Z,48.53
2023-04-11T20:51:03.240Z,47.71
2023-04-11T20:53:32.353Z,47.58
2023-04-11T20:56:05.318Z,47.81
2023-04-11T20:58:36.297Z,47.95
2023-04-11T21:01:08.242Z,47.90
2023-04-11T21:03:42.589Z,47.41
2023-04-11T21:06:13.470Z,47.89
2023-04-11T21:08:44.118Z,47.47
2023-04-11T21:11:13.253Z,47.40
2023-04-11T21:13:43.269Z,48.15
2023-04-11T21:16:12.607Z,47.42
2023-04-11T21:18:42.157Z,47.54
2023-04-11T21:21:12.260Z,47.33
2023-04-11T21:23:43.204Z,47.63
2023-04-11T21:26:12.391Z,47.38
2023-04-11T21:28:41.838Z,47.36
2023-04-11T21:31:12.547Z,47.26
2023-04-11T21:33:42.822Z,47.30
2023-04-11T21:36:12.537Z,47.15
2023-04-11T21:38:41.853Z,47.32
2023-04-11T21:41:11.132Z,47.67
2023-04-11T21:43:40.835Z,47.61
2023-04-11T21:46:11.039Z,48.38
2023-04-11T21:48:41.048Z,47.33
2023-04-11T21:51:09.866Z,47.23
2023-04-11T21:53:40.401Z,47.16
2023-04-11T21:56:38.672Z,47.31
2023-04-11T21:59:12.612Z,47.45
2023-04-11T22:01:48.915Z,47.26
2023-04-11T22:04:47.377Z,47.05
2023-04-11T22:07:24.591Z,47.14
2023-04-11T22:10:02.036Z,46.99
2023-04-11T22:12:32.992Z,47.72
2023-04-11T22:15:05.695Z,47.16
2023-04-11T22:17:37.585Z,48.75
2023-04-11T22:20:09.728Z,47.61
2023-04-11T22:22:42.356Z,47.11
2023-04-11T22:25:12.073Z,46.92
2023-04-11T22:27:45.531Z,46.80
2023-04-11T22:30:17.057Z,48.46
2023-04-11T22:32:47.516Z,47.17
2023-04-11T22:35:16.523Z,46.85
2023-04-11T22:37:45.414Z,46.69
2023-04-11T22:40:19.434Z,46.58
2023-04-11T22:42:51.273Z,46.63
2023-04-11T22:45:24.336Z,47.20
2023-04-11T22:47:55.169Z,46.56
2023-04-11T22:50:25.194Z,46.43
2023-04-11T22:52:55.597Z,46.24
2023-04-11T22:55:25.749Z,46.16
2023-04-11T22:57:56.398Z,46.08
2023-04-11T23:00:25.631Z,45.94
2023-04-11T23:02:57.326Z,45.83
2023-04-11T23:05:30.995Z,47.42
2023-04-11T23:08:00.795Z,46.18
2023-04-11T23:10:29.904Z,45.82
2023-04-11T23:13:00.766Z,45.60
2023-04-11T23:15:30.815Z,45.42
2023-04-11T23:18:03.148Z,45.38
2023-04-11T23:20:32.533Z,45.25
2023-04-11T23:23:03.738Z,45.27
2023-04-11T23:25:32.843Z,45.12
2023-04-11T23:28:03.157Z,45.11
2023-04-11T23:30:32.716Z,45.00
2023-04-11T23:33:04.508Z,45.55
2023-04-11T23:35:35.168Z,44.99
2023-04-11T23:38:04.726Z,44.87
2023-04-11T23:40:43.747Z,45.70
2023-04-11T23:43:13.190Z,45.03
2023-04-11T23:45:43.598Z,44.82
2023-04-11T23:48:13.101Z,44.80
2023-04-11T23:50:43.399Z,44.70
2023-04-11T23:53:12.568Z,44.61
2023-04-11T23:55:45.783Z,45.35
2023-04-11T23:58:15.797Z,46.58
